createdAt,value
2022-11-13T00:00:24.776Z,2.47
2022-11-13T00:03:10.581Z,2.80
2022-11-13T00:06:00.767Z,2.78
2022-11-13T00:08:47.917Z,3.40
2022-11-13T00:11:39.179Z,3.45
2022-11-13T00:14:25.194Z,3.35
2022-11-13T00:17:10.767Z,5.25
2022-11-13T00:19:56.583Z,3.70
2022-11-13T00:25:28.780Z,3.17
2022-11-13T00:31:05.696Z,3.33
2022-11-13T00:36:57.708Z,3.60
2022-11-13T00:39:44.150Z,6.60
2022-11-13T00:42:30.400Z,3.67
2022-11-13T00:45:16.355Z,3.75
2022-11-13T00:48:02.099Z,3.30
2022-11-13T00:53:33.916Z,2.63
2022-11-13T00:56:21.972Z,3.17
2022-11-13T00:59:08.000Z,3.17
2022-11-13T01:01:53.794Z,3.72
2022-11-13T01:04:39.732Z,2.83
2022-11-13T01:07:25.414Z,4.28
2022-11-13T01:10:11.651Z,3.45
2022-11-13T01:12:57.732Z,2.80
2022-11-13T01:15:46.154Z,3.65
2022-11-13T01:18:31.892Z,2.15
2022-11-13T01:21:25.468Z,2.97
2022-11-13T01:24:10.969Z,3.92
2022-11-13T01:26:56.607Z,3.05
2022-11-13T01:29:43.344Z,3.25
2022-11-13T01:32:28.916Z,5.30
2022-11-13T01:35:15.140Z,2.55
2022-11-13T01:38:01.216Z,3.78
2022-11-13T01:40:50.745Z,2.97
2022-11-13T01:43:39.823Z,2.15
2022-11-13T01:46:28.811Z,2.10
2022-11-13T01:49:23.897Z,2.38
2022-11-13T01:52:16.405Z,2.75
2022-11-13T01:55:14.725Z,2.47
2022-11-13T01:58:01.652Z,5.13
2022-11-13T02:00:47.362Z,1.92
2022-11-13T02:06:20.011Z,2.92
2022-11-13T02:09:06.905Z,2.53
2022-11-13T02:11:53.914Z,1.70
2022-11-13T02:14:47.133Z,2.70
2022-11-13T02:17:57.443Z,2.75
2022-11-13T02:21:24.524Z,3.55
2022-11-13T02:24:25.012Z,2.28
2022-11-13T02:27:35.561Z,3.13
2022-11-13T02:30:32.039Z,2.35
2022-11-13T02:33:27.968Z,1.67
2022-11-13T02:36:15.474Z,2.55
2022-11-13T02:39:05.582Z,2.08
2022-11-13T02:41:52.013Z,3.13
2022-11-13T02:44:37.757Z,2.20
2022-11-13T02:47:23.305Z,2.28
2022-11-13T02:50:11.256Z,4.88
2022-11-13T02:52:58.041Z,2.00
2022-11-13T02:55:43.801Z,2.22
2022-11-13T02:58:29.654Z,4.28
2022-11-13T03:01:15.882Z,1.95
2022-11-13T03:04:01.584Z,2.40
2022-11-13T03:06:49.149Z,2.03
2022-11-13T03:09:38.014Z,2.15
2022-11-13T03:12:23.653Z,3.13
2022-11-13T03:17:56.059Z,1.70
2022-11-13T03:20:44.131Z,2.83
2022-11-13T03:23:29.810Z,4.82
2022-11-13T03:29:05.131Z,1.98
2022-11-13T03:31:54.066Z,1.60
2022-11-13T03:34:40.498Z,2.17
2022-11-13T03:37:30.918Z,1.92
2022-11-13T03:40:17.921Z,2.00
2022-11-13T03:43:03.790Z,1.88
2022-11-13T03:45:52.453Z,1.92
2022-11-13T03:48:38.596Z,2.47
2022-11-13T03:51:24.664Z,2.72
2022-11-13T03:54:10.777Z,1.50
2022-11-13T03:56:56.924Z,1.92
2022-11-13T04:02:28.275Z,2.08
2022-11-13T04:05:17.453Z,1.27
2022-11-13T04:08:06.142Z,1.70
2022-11-13T04:10:53.109Z,1.83
2022-11-13T04:13:40.888Z,3.45
2022-11-13T04:16:26.571Z,1.65
2022-11-13T04:19:12.247Z,1.58
2022-11-13T04:24:44.194Z,2.50
2022-11-13T04:27:30.091Z,2.15
2022-11-13T04:30:15.929Z,2.58
2022-11-13T04:33:01.576Z,2.80
2022-11-13T04:35:48.884Z,2.63
2022-11-13T04:38:34.334Z,2.75
2022-11-13T04:41:39.904Z,2.70
2022-11-13T04:44:25.821Z,2.47
2022-11-13T04:47:12.107Z,2.20
2022-11-13T04:49:57.705Z,2.40
2022-11-13T04:52:43.807Z,3.17
2022-11-13T04:55:29.556Z,2.25
2022-11-13T04:58:17.673Z,2.97
2022-11-13T05:01:04.633Z,1.42
2022-11-13T05:03:50.231Z,2.35
2022-11-13T05:09:21.934Z,1.65
2022-11-13T05:12:08.488Z,1.40
2022-11-13T05:14:54.239Z,1.27
2022-11-13T05:17:39.676Z,2.75
2022-11-13T05:20:25.297Z,1.30
2022-11-13T05:26:09.190Z,0.93
2022-11-13T05:28:58.642Z,1.00
2022-11-13T05:31:44.947Z,1.00
2022-11-13T05:34:31.300Z,1.00
2022-11-13T05:37:18.248Z,1.02
2022-11-13T05:40:04.696Z,1.05
2022-11-13T05:42:51.012Z,1.05
2022-11-13T05:48:22.226Z,1.00
2022-11-13T05:51:15.717Z,1.10
2022-11-13T05:54:02.328Z,1.10
2022-11-13T05:56:48.190Z,1.10
2022-11-13T05:59:34.213Z,1.13
2022-11-13T06:05:06.277Z,0.90
2022-11-13T06:07:52.198Z,1.13
2022-11-13T06:10:38.113Z,0.95
2022-11-13T06:13:23.784Z,1.05
2022-11-13T06:18:58.701Z,1.45
2022-11-13T06:21:44.408Z,0.88
2022-11-13T06:24:29.993Z,0.73
2022-11-13T06:27:15.571Z,0.75
2022-11-13T06:30:01.421Z,1.20
2022-11-13T06:32:53.592Z,1.02
2022-11-13T06:35:39.489Z,1.15
2022-11-13T06:38:28.566Z,0.88
2022-11-13T06:41:16.817Z,0.80
2022-11-13T06:44:03.563Z,1.30
2022-11-13T06:46:52.126Z,0.95
2022-11-13T06:49:38.194Z,0.82
2022-11-13T06:55:09.551Z,0.75
2022-11-13T07:00:42.668Z,3.00
2022-11-13T07:03:28.348Z,1.60
2022-11-13T07:06:20.372Z,1.30
2022-11-13T07:09:06.077Z,1.40
2022-11-13T07:11:51.829Z,1.73
2022-11-13T07:14:38.378Z,1.42
2022-11-13T07:17:31.211Z,1.30
2022-11-13T07:20:17.311Z,1.45
2022-11-13T07:25:52.125Z,1.30
2022-11-13T07:28:38.462Z,2.00
2022-11-13T07:31:24.680Z,1.88
2022-11-13T07:34:10.711Z,1.42
2022-11-13T07:39:45.334Z,1.50
2022-11-13T07:42:33.790Z,1.25
2022-11-13T07:45:20.339Z,2.05
2022-11-13T07:48:22.579Z,1.73
2022-11-13T07:51:10.750Z,1.88
2022-11-13T07:53:58.892Z,2.35
2022-11-13T07:56:49.593Z,1.73
2022-11-13T07:59:37.762Z,2.83
2022-11-13T08:02:47.631Z,2.40
2022-11-13T08:05:35.618Z,2.47
2022-11-13T08:08:23.467Z,3.58
2022-11-13T08:11:27.602Z,3.30
2022-11-13T08:14:46.946Z,2.60
2022-11-13T08:17:34.087Z,3.13
2022-11-13T08:20:34.497Z,2.80
2022-11-13T08:23:23.326Z,3.05
2022-11-13T08:26:13.294Z,3.38
2022-11-13T08:29:08.642Z,3.00
2022-11-13T08:32:01.656Z,2.60
2022-11-13T08:34:50.274Z,2.50
2022-11-13T08:37:43.737Z,2.65
2022-11-13T08:40:57.783Z,2.55
2022-11-13T08:44:00.413Z,2.65
2022-11-13T08:46:52.894Z,3.08
2022-11-13T08:49:46.023Z,3.08
2022-11-13T08:52:37.374Z,2.67
2022-11-13T08:55:45.791Z,2.92
2022-11-13T08:58:32.055Z,3.20
2022-11-13T09:01:18.053Z,2.63
2022-11-13T09:04:06.933Z,2.22
2022-11-13T09:06:57.843Z,2.22
2022-11-13T09:09:43.782Z,2.17
2022-11-13T09:12:31.216Z,1.60
2022-11-13T09:15:24.256Z,1.58
2022-11-13T09:18:11.674Z,3.22
2022-11-13T09:21:16.923Z,2.90
2022-11-13T09:24:09.147Z,1.95
2022-11-13T09:26:55.282Z,1.77
2022-11-13T09:29:41.475Z,2.58
2022-11-13T09:32:31.972Z,1.75
2022-11-13T09:35:34.108Z,1.50
2022-11-13T09:38:36.169Z,1.42
2022-11-13T09:41:35.541Z,1.95
2022-11-13T09:44:39.685Z,1.70
2022-11-13T09:47:42.497Z,1.85
2022-11-13T09:50:32.664Z,1.30
2022-11-13T09:53:21.670Z,5.68
2022-11-13T09:56:22.311Z,1.17
2022-11-13T09:59:53.468Z,1.55
2022-11-13T10:03:13.616Z,1.08
2022-11-13T10:06:35.229Z,1.40
2022-11-13T10:09:39.265Z,1.52
2022-11-13T10:12:27.631Z,0.93
2022-11-13T10:15:17.507Z,1.23
2022-11-13T10:18:11.450Z,1.27
2022-11-13T10:21:35.253Z,1.38
2022-11-13T10:24:35.605Z,3.88
2022-11-13T10:27:21.692Z,1.35
2022-11-13T10:30:17.632Z,1.45
2022-11-13T10:35:58.357Z,1.95
2022-11-13T10:38:50.279Z,4.15
2022-11-13T10:41:50.323Z,4.68
2022-11-13T10:44:35.967Z,1.50
2022-11-13T10:47:49.473Z,1.15
2022-11-13T10:50:31.389Z,1.48
2022-11-13T10:53:20.670Z,1.20
2022-11-13T10:56:29.661Z,1.45
2022-11-13T10:59:19.620Z,4.63
2022-11-13T11:02:16.660Z,1.02
2022-11-13T11:05:07.689Z,1.13
2022-11-13T11:07:54.936Z,2.40
2022-11-13T11:11:00.179Z,2.00
2022-11-13T11:13:45.478Z,1.40
2022-11-13T11:16:36.518Z,6.05
2022-11-13T11:19:28.639Z,1.40
2022-11-13T11:22:18.364Z,2.35
2022-11-13T11:25:16.784Z,1.58
2022-11-13T11:28:17.754Z,2.22
2022-11-13T11:31:13.143Z,2.53
2022-11-13T11:34:22.003Z,1.03
2022-11-13T11:37:21.922Z,2.25
2022-11-13T11:40:16.615Z,1.33
2022-11-13T11:43:29.299Z,6.05
2022-11-13T11:46:17.757Z,2.67
2022-11-13T11:49:05.266Z,1.30
2022-11-13T11:52:04.238Z,1.33
2022-11-13T11:54:57.946Z,1.48
2022-11-13T11:58:18.186Z,2.15
2022-11-13T12:01:18.220Z,1.75
2022-11-13T12:04:24.951Z,1.60
2022-11-13T12:07:34.097Z,3.35
2022-11-13T12:10:37.617Z,4.32
2022-11-13T12:13:33.330Z,2.60
2022-11-13T12:16:25.451Z,2.10
2022-11-13T12:19:50.992Z,1.98
2022-11-13T12:22:51.733Z,2.03
2022-11-13T12:26:09.227Z,1.88
2022-11-13T12:28:57.584Z,3.63
2022-11-13T12:32:10.802Z,3.78
2022-11-13T12:35:11.380Z,2.83
2022-11-13T12:38:06.572Z,2.10
2022-11-13T12:40:59.230Z,2.45
2022-11-13T12:44:17.876Z,4.90
2022-11-13T12:47:08.761Z,1.90
2022-11-13T12:50:06.263Z,2.03
2022-11-13T12:53:24.945Z,2.50
2022-11-13T12:56:20.627Z,2.25
2022-11-13T12:59:34.961Z,1.73
2022-11-13T13:02:47.067Z,2.55
2022-11-13T13:05:56.867Z,2.33
2022-11-13T13:08:42.686Z,4.07
2022-11-13T13:11:53.740Z,2.97
2022-11-13T13:15:01.015Z,2.25
2022-11-13T13:17:46.743Z,2.13
2022-11-13T13:23:44.069Z,3.45
2022-11-13T13:26:30.404Z,4.05
2022-11-13T13:29:23.273Z,1.85
2022-11-13T13:32:30.559Z,2.05
2022-11-13T13:35:24.752Z,2.42
2022-11-13T13:38:29.993Z,2.90
2022-11-13T13:41:37.586Z,4.80
2022-11-13T13:44:58.307Z,2.83
2022-11-13T13:47:49.182Z,2.35
2022-11-13T13:50:43.059Z,3.33
2022-11-13T13:53:33.441Z,4.90
2022-11-13T13:56:21.169Z,4.07
2022-11-13T13:59:14.450Z,3.92
2022-11-13T14:02:02.333Z,5.35
2022-11-13T14:04:50.508Z,4.05
2022-11-13T14:07:38.199Z,4.35
2022-11-13T14:10:28.386Z,3.92
2022-11-13T14:13:15.486Z,7.10
2022-11-13T14:16:06.484Z,3.80
2022-11-13T14:18:51.885Z,4.97
2022-11-13T14:21:37.870Z,4.53
2022-11-13T14:24:27.935Z,3.42
2022-11-13T14:27:19.110Z,3.22
2022-11-13T14:30:09.828Z,3.42
2022-11-13T14:32:55.375Z,2.75
2022-11-13T14:35:41.130Z,3.90
2022-11-13T14:38:32.155Z,3.08
2022-11-13T14:41:20.706Z,6.93
2022-11-13T14:44:06.375Z,3.25
2022-11-13T14:49:47.293Z,3.60
2022-11-13T14:52:32.709Z,4.68
2022-11-13T14:55:24.573Z,3.97
2022-11-13T14:58:14.234Z,7.07
2022-11-13T15:01:14.289Z,3.35
2022-11-13T15:03:59.991Z,7.28
2022-11-13T15:06:45.801Z,2.75
2022-11-13T15:12:17.591Z,3.80
2022-11-13T15:15:03.387Z,5.00
2022-11-13T15:20:36.276Z,3.47
2022-11-13T15:23:25.544Z,4.88
2022-11-13T15:26:12.379Z,3.38
2022-11-13T15:28:58.205Z,3.55
2022-11-13T15:37:17.187Z,3.92
2022-11-13T15:40:03.635Z,5.95
2022-11-13T15:42:49.531Z,6.82
2022-11-13T15:45:36.076Z,3.65
2022-11-13T15:48:26.990Z,4.30
2022-11-13T15:51:18.424Z,3.17
2022-11-13T15:54:31.759Z,3.53
2022-11-13T15:57:27.100Z,3.33
2022-11-13T16:00:17.003Z,3.85
2022-11-13T16:03:11.649Z,4.13
2022-11-13T16:06:00.953Z,6.03
2022-11-13T16:08:47.623Z,6.28
2022-11-13T16:11:34.677Z,3.70
2022-11-13T16:14:24.760Z,4.45
2022-11-13T16:17:20.514Z,9.73
2022-11-13T16:20:08.085Z,4.25
2022-11-13T16:22:55.197Z,5.95
2022-11-13T16:25:41.291Z,3.90
2022-11-13T16:28:27.096Z,7.25
2022-11-13T16:31:16.634Z,6.70
2022-11-13T16:34:02.403Z,3.63
2022-11-13T16:39:36.932Z,3.58
2022-11-13T16:42:24.142Z,7.97
2022-11-13T16:45:12.671Z,4.00
2022-11-13T16:47:58.948Z,3.75
2022-11-13T16:50:44.785Z,7.13
2022-11-13T16:53:32.479Z,3.92
2022-11-13T16:56:28.315Z,4.50
2022-11-13T16:59:14.005Z,5.03
2022-11-13T17:02:02.106Z,7.32
2022-11-13T17:04:49.472Z,5.28
2022-11-13T17:07:35.520Z,5.55
2022-11-13T17:10:32.270Z,4.57
2022-11-13T17:13:18.521Z,4.47
2022-11-13T17:16:03.911Z,5.72
2022-11-13T17:18:50.508Z,5.22
2022-11-13T17:21:38.948Z,4.57
2022-11-13T17:24:30.018Z,4.82
2022-11-13T17:27:15.530Z,5.13
2022-11-13T17:30:01.201Z,8.13
2022-11-13T17:32:48.139Z,5.50
2022-11-13T17:35:33.530Z,8.48
2022-11-13T17:38:19.177Z,5.78
2022-11-13T17:41:09.096Z,5.15
2022-11-13T17:43:58.244Z,7.95
2022-11-13T17:46:50.802Z,5.55
2022-11-13T17:49:36.161Z,5.45
2022-11-13T17:52:25.043Z,6.07
2022-11-13T17:55:13.229Z,7.28
2022-11-13T17:58:00.496Z,7.28
2022-11-13T18:00:46.240Z,5.90
2022-11-13T18:06:20.179Z,7.53
2022-11-13T18:09:07.800Z,5.80
2022-11-13T18:11:53.475Z,7.47
2022-11-13T18:14:38.888Z,6.20
2022-11-13T18:17:25.383Z,7.25
2022-11-13T18:20:11.633Z,6.07
2022-11-13T18:22:57.739Z,6.53
2022-11-13T18:25:43.721Z,5.13
2022-11-13T18:28:29.236Z,6.10
2022-11-13T18:31:24.262Z,6.85
2022-11-13T18:34:14.266Z,9.13
2022-11-13T18:37:00.383Z,8.40
2022-11-13T18:39:46.173Z,5.95
2022-11-13T18:42:31.399Z,7.05
2022-11-13T18:45:17.273Z,9.02
2022-11-13T18:48:09.215Z,6.88
2022-11-13T18:50:59.660Z,8.63
2022-11-13T18:53:45.996Z,6.72
2022-11-13T18:56:32.536Z,8.90
2022-11-13T18:59:18.480Z,6.53
2022-11-13T19:05:16.159Z,8.70
2022-11-13T19:08:01.974Z,6.43
2022-11-13T19:10:47.323Z,7.35
2022-11-13T19:13:34.287Z,10.13
2022-11-13T19:16:22.990Z,9.90
2022-11-13T19:19:16.257Z,10.02
2022-11-13T19:22:12.754Z,9.00
2022-11-13T19:24:58.737Z,8.93
2022-11-13T19:27:44.836Z,6.45
2022-11-13T19:30:30.732Z,8.95
2022-11-13T19:33:15.933Z,7.32
2022-11-13T19:38:52.910Z,8.27
2022-11-13T19:41:38.747Z,6.60
2022-11-13T19:44:25.141Z,6.28
2022-11-13T19:47:14.818Z,5.45
2022-11-13T19:50:00.694Z,9.07
2022-11-13T19:52:46.386Z,6.57
2022-11-13T19:55:43.259Z,5.65
2022-11-13T19:58:34.671Z,5.10
2022-11-13T20:01:26.482Z,7.75
2022-11-13T20:04:17.231Z,4.75
2022-11-13T20:07:06.819Z,6.03
2022-11-13T20:21:19.069Z,3.78
2022-11-13T20:24:06.061Z,5.25
2022-11-13T20:26:51.457Z,4.45
2022-11-13T20:29:38.128Z,4.80
2022-11-13T20:32:32.824Z,6.93
2022-11-13T20:35:20.192Z,6.68
2022-11-13T20:38:12.420Z,5.10
2022-11-13T20:40:58.273Z,7.63
2022-11-13T20:43:43.915Z,5.40
2022-11-13T20:46:30.449Z,4.70
2022-11-13T20:49:18.438Z,4.72
2022-11-13T20:52:11.570Z,5.65
2022-11-13T20:54:57.742Z,7.20
2022-11-13T21:00:29.363Z,5.15
2022-11-13T21:03:18.986Z,4.15
2022-11-13T21:06:05.133Z,4.18
2022-11-13T21:08:50.646Z,4.57
2022-11-13T21:11:37.835Z,5.80
2022-11-13T21:14:26.954Z,9.90
2022-11-13T21:17:14.486Z,5.30
2022-11-13T21:20:02.541Z,4.45
2022-11-13T21:22:59.736Z,4.50
2022-11-13T21:25:45.095Z,4.80
2022-11-13T21:28:33.717Z,9.10
2022-11-13T21:31:21.515Z,5.13
2022-11-13T21:34:09.356Z,4.28
2022-11-13T21:37:05.817Z,4.05
2022-11-13T21:39:51.774Z,5.35
2022-11-13T21:42:40.265Z,6.20
2022-11-13T21:45:28.921Z,7.50
2022-11-13T21:48:16.118Z,7.63
2022-11-13T21:51:02.094Z,7.30
2022-11-13T21:53:48.011Z,9.77
2022-11-13T21:56:36.941Z,7.50
2022-11-13T21:59:32.395Z,8.93
2022-11-13T22:02:18.923Z,5.73
2022-11-13T22:05:04.949Z,5.03
2022-11-13T22:07:51.468Z,4.15
2022-11-13T22:10:40.071Z,4.30
2022-11-13T22:13:25.727Z,5.43
2022-11-13T22:19:00.043Z,6.13
2022-11-13T22:21:47.213Z,4.70
2022-11-13T22:24:35.712Z,4.38
2022-11-13T22:27:21.803Z,3.97
2022-11-13T22:30:11.495Z,6.70
2022-11-13T22:32:57.306Z,4.55
2022-11-13T22:35:42.904Z,5.60
2022-11-13T22:38:29.202Z,4.20
2022-11-13T22:41:24.101Z,4.38
2022-11-13T22:44:13.952Z,4.20
2022-11-13T22:46:59.873Z,3.15
2022-11-13T22:49:45.794Z,3.90
2022-11-13T22:52:31.350Z,3.42
2022-11-13T22:55:17.249Z,3.72
2022-11-13T22:58:03.198Z,4.38
2022-11-13T23:03:42.106Z,2.92
2022-11-13T23:06:30.013Z,3.35
2022-11-13T23:09:41.434Z,2.65
2022-11-13T23:12:31.659Z,3.97
2022-11-13T23:15:21.085Z,4.85
2022-11-13T23:18:09.853Z,3.45
2022-11-13T23:20:56.465Z,3.72
2022-11-13T23:23:43.906Z,4.43
2022-11-13T23:26:30.014Z,4.40
2022-11-13T23:29:15.804Z,3.70
2022-11-13T23:32:06.033Z,4.32
2022-11-13T23:34:58.988Z,6.38
2022-11-13T23:37:45.314Z,4.10
2022-11-13T23:40:30.868Z,4.63
2022-11-13T23:43:16.542Z,4.53
2022-11-13T23:46:05.817Z,5.65
2022-11-13T23:48:53.882Z,4.40
2022-11-13T23:51:40.116Z,3.95
2022-11-13T23:54:25.349Z,4.93
2022-11-13T23:57:14.131Z,5.03
